메인 페이지
METAR-TAF:

METAR-TAF

공항 :

네타지 수바스 찬드라 보스 국제공항

콜카타, 인도

위도: 22-39N, 경도: 088-27E, 고도: 4m

현재 날씨관측

예보는 26분 전, 00:00시(UTC)에 발표되었습니다.
동북동4kt
온도 25°C
습도 94%
기압 1011 hPa
시정: 2800m
고도 2000ft 상공 구름 보통
고도 3000ft 상공 구름 조금, 적란운.
고도 10000ft 상공 구름 보통
연무

METAR: VECC 220000Z 07004KT 2800 HZ SCT020 FEW030CB SCT100 25/24 Q1011 NOSIG

시각: 05:56 (00:26 UTC)

예보

예보는 1 시간 26분 전, 23:00시(UTC)에 발표되었습니다.
예보 대상 시간: 22일 00시부터 23일 06시까지 (UTC)
남동5kt
시정: 2500m
고도 1800ft 상공 구름 보통
고도 9000ft 상공 구름 많음
약한비, 연무
전환 중
22일 02시부터 22일 04시까지 (UTC)
시정: 3200m
고도 1800ft 상공 구름 보통
고도 10000ft 상공 구름 많음
약한비, 연무
일시적
22일 06시부터 22일 10시까지 (UTC)
시정: 1500m
고도 1500ft 상공 구름 보통
고도 2500ft 상공 구름 조금, 적란운.
고도 9000ft 상공 구름 많음
뇌우, 비
전환 중
22일 16시부터 22일 18시까지 (UTC)
시정: 2500m
약한비, 연무
전환 중
23일 02시부터 23일 04시까지 (UTC)
시정: 2500m
약한비, 연무

TAF: VECC 212300Z 2200/2306 14005KT 2500 -RA HZ SCT018 BKN090 BECMG 2202/2204 3200 -RA HZ SCT018 BKN100 TEMPO 2206/2210 1500 TSRA SCT015 FEW025CB BKN090 BECMG 2216/2218 2500 -RA HZ BECMG 2302/2304 2500 -RA HZ

4,000개 이상의 공항 관측 자료 및 예보 (METAR 및 TAF 보고).

지도상에서 검색 가능한 기상관측소가 노란 점과 빨간 점으로 표시되어 있습니다.

기상관측소 명을 보려면 표시 위로 마우스를 이동하세요.

날씨 관측과 예보를 보려면 클릭하세요.

지도 변경 : 확대하려면 엑스 표시가 있는 녹색 버튼, 축소하려면 빼기 표시가 있는 녹색 버튼, 다음 페이지의 지도를 보려면 녹색 화살표를 클릭하세요.


METAR-TAF: